sensor_id;sensor_type;location;lat;lon;timestamp;P1;durP1;ratioP1;P2;durP2;ratioP2
16403;SDS011;8311;50.158;8.642;2022-08-18T00:01:59;6.15;;;5.00;;
16403;SDS011;8311;50.158;8.642;2022-08-18T00:04:56;7.68;;;5.80;;
16403;SDS011;8311;50.158;8.642;2022-08-18T00:07:51;7.32;;;5.80;;
16403;SDS011;8311;50.158;8.642;2022-08-18T00:10:44;8.07;;;5.90;;
16403;SDS011;8311;50.158;8.642;2022-08-18T00:13:36;7.93;;;5.45;;
16403;SDS011;8311;50.158;8.642;2022-08-18T00:16:29;6.47;;;5.53;;
16403;SDS011;8311;50.158;8.642;2022-08-18T00:19:23;7.47;;;5.72;;
16403;SDS011;8311;50.158;8.642;2022-08-18T00:22:38;8.77;;;6.15;;
16403;SDS011;8311;50.158;8.642;2022-08-18T00:25:32;7.43;;;5.68;;
16403;SDS011;8311;50.158;8.642;2022-08-18T00:28:25;7.80;;;6.18;;
16403;SDS011;8311;50.158;8.642;2022-08-18T00:31:19;6.90;;;5.95;;
16403;SDS011;8311;50.158;8.642;2022-08-18T00:34:13;6.57;;;5.72;;
16403;SDS011;8311;50.158;8.642;2022-08-18T00:37:07;7.22;;;5.72;;
16403;SDS011;8311;50.158;8.642;2022-08-18T00:40:03;7.25;;;5.97;;
16403;SDS011;8311;50.158;8.642;2022-08-18T00:42:59;8.32;;;5.72;;
16403;SDS011;8311;50.158;8.642;2022-08-18T00:45:55;7.63;;;6.53;;
16403;SDS011;8311;50.158;8.642;2022-08-18T00:48:50;7.32;;;6.22;;
16403;SDS011;8311;50.158;8.642;2022-08-18T00:51:45;6.90;;;6.07;;
16403;SDS011;8311;50.158;8.642;2022-08-18T00:54:41;7.40;;;6.55;;
16403;SDS011;8311;50.158;8.642;2022-08-18T00:57:37;7.22;;;6.15;;
16403;SDS011;8311;50.158;8.642;2022-08-18T01:00:33;9.43;;;6.20;;
16403;SDS011;8311;50.158;8.642;2022-08-18T01:03:26;6.97;;;6.28;;
16403;SDS011;8311;50.158;8.642;2022-08-18T01:06:23;7.10;;;6.07;;
16403;SDS011;8311;50.158;8.642;2022-08-18T01:09:19;7.80;;;6.38;;
16403;SDS011;8311;50.158;8.642;2022-08-18T01:12:14;6.75;;;5.82;;
16403;SDS011;8311;50.158;8.642;2022-08-18T01:15:29;7.38;;;6.20;;
16403;SDS011;8311;50.158;8.642;2022-08-18T01:18:22;7.22;;;6.10;;
16403;SDS011;8311;50.158;8.642;2022-08-18T01:21:33;7.03;;;5.97;;
16403;SDS011;8311;50.158;8.642;2022-08-18T01:24:45;7.80;;;6.43;;
16403;SDS011;8311;50.158;8.642;2022-08-18T01:27:56;8.38;;;6.43;;
16403;SDS011;8311;50.158;8.642;2022-08-18T01:30:54;8.45;;;6.93;;
16403;SDS011;8311;50.158;8.642;2022-08-18T01:33:49;9.50;;;6.20;;
16403;SDS011;8311;50.158;8.642;2022-08-18T01:36:42;9.23;;;6.50;;
16403;SDS011;8311;50.158;8.642;2022-08-18T01:39:35;8.93;;;6.75;;
16403;SDS011;8311;50.158;8.642;2022-08-18T01:42:50;9.73;;;6.32;;
16403;SDS011;8311;50.158;8.642;2022-08-18T01:45:44;7.95;;;5.97;;
16403;SDS011;8311;50.158;8.642;2022-08-18T01:48:38;6.80;;;6.10;;
16403;SDS011;8311;50.158;8.642;2022-08-18T01:51:33;8.35;;;6.05;;
16403;SDS011;8311;50.158;8.642;2022-08-18T01:54:31;7.65;;;6.85;;
16403;SDS011;8311;50.158;8.642;2022-08-18T01:57:25;7.40;;;5.97;;
16403;SDS011;8311;50.158;8.642;2022-08-18T02:00:20;7.80;;;6.55;;
16403;SDS011;8311;50.158;8.642;2022-08-18T02:03:15;8.13;;;6.20;;
16403;SDS011;8311;50.158;8.642;2022-08-18T02:06:09;7.50;;;6.63;;
16403;SDS011;8311;50.158;8.642;2022-08-18T02:09:05;9.10;;;6.40;;
16403;SDS011;8311;50.158;8.642;2022-08-18T02:11:59;8.35;;;6.28;;
16403;SDS011;8311;50.158;8.642;2022-08-18T02:14:52;7.85;;;6.68;;
16403;SDS011;8311;50.158;8.642;2022-08-18T02:17:47;7.80;;;6.55;;
16403;SDS011;8311;50.158;8.642;2022-08-18T02:20:41;7.38;;;6.30;;
16403;SDS011;8311;50.158;8.642;2022-08-18T02:23:35;7.30;;;6.15;;
16403;SDS011;8311;50.158;8.642;2022-08-18T02:26:29;8.45;;;6.72;;
16403;SDS011;8311;50.158;8.642;2022-08-18T02:29:22;10.38;;;7.00;;
16403;SDS011;8311;50.158;8.642;2022-08-18T02:32:15;7.50;;;5.88;;
16403;SDS011;8311;50.158;8.642;2022-08-18T02:35:10;7.78;;;6.30;;
16403;SDS011;8311;50.158;8.642;2022-08-18T02:38:05;7.65;;;6.30;;
16403;SDS011;8311;50.158;8.642;2022-08-18T02:41:01;6.82;;;6.03;;
16403;SDS011;8311;50.158;8.642;2022-08-18T02:43:57;7.25;;;6.50;;
16403;SDS011;8311;50.158;8.642;2022-08-18T02:46:51;7.60;;;6.47;;
16403;SDS011;8311;50.158;8.642;2022-08-18T02:49:46;7.40;;;5.95;;
16403;SDS011;8311;50.158;8.642;2022-08-18T02:52:41;6.95;;;6.25;;
16403;SDS011;8311;50.158;8.642;2022-08-18T02:55:35;7.47;;;6.18;;
16403;SDS011;8311;50.158;8.642;2022-08-18T02:58:28;9.70;;;6.80;;
16403;SDS011;8311;50.158;8.642;2022-08-18T03:01:24;8.32;;;6.82;;
16403;SDS011;8311;50.158;8.642;2022-08-18T03:04:19;7.28;;;5.85;;
16403;SDS011;8311;50.158;8.642;2022-08-18T03:07:19;6.50;;;5.80;;
16403;SDS011;8311;50.158;8.642;2022-08-18T03:10:13;7.40;;;6.35;;
16403;SDS011;8311;50.158;8.642;2022-08-18T03:13:24;7.95;;;6.72;;
16403;SDS011;8311;50.158;8.642;2022-08-18T03:16:17;7.13;;;6.25;;
16403;SDS011;8311;50.158;8.642;2022-08-18T03:19:11;7.22;;;6.25;;
16403;SDS011;8311;50.158;8.642;2022-08-18T03:22:06;8.05;;;6.30;;
16403;SDS011;8311;50.158;8.642;2022-08-18T03:25:20;6.60;;;5.78;;
16403;SDS011;8311;50.158;8.642;2022-08-18T03:28:14;6.72;;;6.03;;
16403;SDS011;8311;50.158;8.642;2022-08-18T03:31:09;7.22;;;6.15;;
16403;SDS011;8311;50.158;8.642;2022-08-18T03:34:04;9.10;;;6.20;;
16403;SDS011;8311;50.158;8.642;2022-08-18T03:37:00;7.03;;;6.03;;
16403;SDS011;8311;50.158;8.642;2022-08-18T03:39:54;8.60;;;6.38;;
16403;SDS011;8311;50.158;8.642;2022-08-18T03:42:48;7.50;;;5.95;;
16403;SDS011;8311;50.158;8.642;2022-08-18T03:45:42;8.40;;;6.57;;
16403;SDS011;8311;50.158;8.642;2022-08-18T03:48:35;7.20;;;6.30;;
16403;SDS011;8311;50.158;8.642;2022-08-18T03:51:31;7.75;;;6.30;;
16403;SDS011;8311;50.158;8.642;2022-08-18T03:54:25;7.43;;;5.70;;
16403;SDS011;8311;50.158;8.642;2022-08-18T03:57:23;7.75;;;6.15;;
16403;SDS011;8311;50.158;8.642;2022-08-18T04:00:17;7.43;;;5.95;;
16403;SDS011;8311;50.158;8.642;2022-08-18T04:03:11;7.90;;;6.22;;
16403;SDS011;8311;50.158;8.642;2022-08-18T04:06:04;9.27;;;6.43;;
16403;SDS011;8311;50.158;8.642;2022-08-18T04:09:04;7.22;;;5.65;;
16403;SDS011;8311;50.158;8.642;2022-08-18T04:12:03;7.63;;;6.10;;
16403;SDS011;8311;50.158;8.642;2022-08-18T04:15:06;8.02;;;6.03;;
16403;SDS011;8311;50.158;8.642;2022-08-18T04:18:01;7.45;;;5.85;;
16403;SDS011;8311;50.158;8.642;2022-08-18T04:21:00;7.15;;;5.75;;
16403;SDS011;8311;50.158;8.642;2022-08-18T04:23:54;7.18;;;5.97;;
16403;SDS011;8311;50.158;8.642;2022-08-18T04:26:47;7.40;;;6.40;;
16403;SDS011;8311;50.158;8.642;2022-08-18T04:29:42;6.43;;;5.55;;
16403;SDS011;8311;50.158;8.642;2022-08-18T04:32:36;7.25;;;5.57;;
16403;SDS011;8311;50.158;8.642;2022-08-18T04:35:30;6.78;;;5.63;;
16403;SDS011;8311;50.158;8.642;2022-08-18T04:38:24;8.23;;;5.35;;
16403;SDS011;8311;50.158;8.642;2022-08-18T04:41:17;7.50;;;6.38;;
16403;SDS011;8311;50.158;8.642;2022-08-18T04:44:14;6.50;;;5.72;;
16403;SDS011;8311;50.158;8.642;2022-08-18T04:47:08;7.57;;;5.90;;
16403;SDS011;8311;50.158;8.642;2022-08-18T04:50:03;6.13;;;5.40;;
16403;SDS011;8311;50.158;8.642;2022-08-18T04:52:58;6.35;;;5.35;;
16403;SDS011;8311;50.158;8.642;2022-08-18T04:56:12;6.40;;;5.80;;
16403;SDS011;8311;50.158;8.642;2022-08-18T04:59:10;7.07;;;5.88;;
16403;SDS011;8311;50.158;8.642;2022-08-18T05:02:04;7.85;;;6.03;;
16403;SDS011;8311;50.158;8.642;2022-08-18T05:05:05;6.85;;;5.85;;
16403;SDS011;8311;50.158;8.642;2022-08-18T05:08:00;7.13;;;5.97;;
16403;SDS011;8311;50.158;8.642;2022-08-18T05:10:53;6.10;;;4.80;;
16403;SDS011;8311;50.158;8.642;2022-08-18T05:13:54;8.15;;;5.97;;
16403;SDS011;8311;50.158;8.642;2022-08-18T05:16:49;7.50;;;6.18;;
16403;SDS011;8311;50.158;8.642;2022-08-18T05:19:43;7.00;;;5.45;;
16403;SDS011;8311;50.158;8.642;2022-08-18T05:22:38;7.20;;;5.47;;
16403;SDS011;8311;50.158;8.642;2022-08-18T05:25:34;7.57;;;5.55;;
16403;SDS011;8311;50.158;8.642;2022-08-18T05:28:30;7.38;;;5.75;;
16403;SDS011;8311;50.158;8.642;2022-08-18T05:31:26;7.90;;;5.60;;
16403;SDS011;8311;50.158;8.642;2022-08-18T05:34:20;6.70;;;5.45;;
16403;SDS011;8311;50.158;8.642;2022-08-18T05:37:27;6.88;;;4.85;;
16403;SDS011;8311;50.158;8.642;2022-08-18T05:40:27;6.57;;;5.15;;
16403;SDS011;8311;50.158;8.642;2022-08-18T05:43:23;6.47;;;4.97;;
16403;SDS011;8311;50.158;8.642;2022-08-18T05:46:17;6.68;;;5.07;;
16403;SDS011;8311;50.158;8.642;2022-08-18T05:49:12;7.05;;;5.43;;
16403;SDS011;8311;50.158;8.642;2022-08-18T05:52:08;7.75;;;5.20;;
16403;SDS011;8311;50.158;8.642;2022-08-18T05:55:08;7.32;;;5.47;;
16403;SDS011;8311;50.158;8.642;2022-08-18T05:58:25;6.90;;;5.32;;
16403;SDS011;8311;50.158;8.642;2022-08-18T06:01:26;8.60;;;5.30;;
16403;SDS011;8311;50.158;8.642;2022-08-18T06:04:27;7.03;;;5.28;;
16403;SDS011;8311;50.158;8.642;2022-08-18T06:07:29;5.35;;;4.53;;
16403;SDS011;8311;50.158;8.642;2022-08-18T06:10:26;8.18;;;5.18;;
16403;SDS011;8311;50.158;8.642;2022-08-18T06:13:19;7.65;;;4.65;;
16403;SDS011;8311;50.158;8.642;2022-08-18T06:16:16;6.13;;;4.60;;
16403;SDS011;8311;50.158;8.642;2022-08-18T06:19:21;6.80;;;4.50;;
16403;SDS011;8311;50.158;8.642;2022-08-18T06:22:25;5.50;;;4.63;;
16403;SDS011;8311;50.158;8.642;2022-08-18T06:25:26;8.90;;;4.75;;
16403;SDS011;8311;50.158;8.642;2022-08-18T06:28:26;6.85;;;4.75;;
16403;SDS011;8311;50.158;8.642;2022-08-18T06:31:30;7.80;;;4.70;;
16403;SDS011;8311;50.158;8.642;2022-08-18T06:34:33;6.40;;;4.25;;
16403;SDS011;8311;50.158;8.642;2022-08-18T06:37:38;5.57;;;4.63;;
16403;SDS011;8311;50.158;8.642;2022-08-18T06:40:59;9.02;;;4.57;;
16403;SDS011;8311;50.158;8.642;2022-08-18T06:43:55;7.10;;;4.43;;
16403;SDS011;8311;50.158;8.642;2022-08-18T06:46:53;7.80;;;4.75;;
16403;SDS011;8311;50.158;8.642;2022-08-18T06:49:56;6.40;;;4.85;;
16403;SDS011;8311;50.158;8.642;2022-08-18T06:52:57;5.95;;;4.82;;
16403;SDS011;8311;50.158;8.642;2022-08-18T06:55:52;6.47;;;4.50;;
16403;SDS011;8311;50.158;8.642;2022-08-18T06:58:45;6.63;;;4.85;;
16403;SDS011;8311;50.158;8.642;2022-08-18T07:01:43;8.55;;;4.65;;
16403;SDS011;8311;50.158;8.642;2022-08-18T07:04:41;7.22;;;4.88;;
16403;SDS011;8311;50.158;8.642;2022-08-18T07:07:38;9.02;;;4.78;;
16403;SDS011;8311;50.158;8.642;2022-08-18T07:10:34;6.28;;;5.10;;
16403;SDS011;8311;50.158;8.642;2022-08-18T07:13:29;9.05;;;4.72;;
16403;SDS011;8311;50.158;8.642;2022-08-18T07:16:32;10.23;;;5.00;;
16403;SDS011;8311;50.158;8.642;2022-08-18T07:19:54;7.50;;;4.85;;
16403;SDS011;8311;50.158;8.642;2022-08-18T07:22:53;7.32;;;4.57;;
16403;SDS011;8311;50.158;8.642;2022-08-18T07:25:52;7.35;;;4.95;;
16403;SDS011;8311;50.158;8.642;2022-08-18T07:28:55;6.45;;;4.75;;
16403;SDS011;8311;50.158;8.642;2022-08-18T07:32:07;5.32;;;4.35;;
16403;SDS011;8311;50.158;8.642;2022-08-18T07:35:14;7.00;;;4.20;;
16403;SDS011;8311;50.158;8.642;2022-08-18T07:38:12;6.93;;;4.47;;
16403;SDS011;8311;50.158;8.642;2022-08-18T07:41:31;7.03;;;4.30;;
16403;SDS011;8311;50.158;8.642;2022-08-18T07:44:32;6.70;;;4.50;;
16403;SDS011;8311;50.158;8.642;2022-08-18T07:47:37;7.30;;;4.53;;
16403;SDS011;8311;50.158;8.642;2022-08-18T07:50:43;6.68;;;5.20;;
16403;SDS011;8311;50.158;8.642;2022-08-18T07:53:52;5.45;;;4.45;;
16403;SDS011;8311;50.158;8.642;2022-08-18T07:56:52;6.22;;;3.95;;
16403;SDS011;8311;50.158;8.642;2022-08-18T07:59:56;6.93;;;4.32;;
16403;SDS011;8311;50.158;8.642;2022-08-18T08:03:15;6.50;;;4.50;;
16403;SDS011;8311;50.158;8.642;2022-08-18T08:06:25;6.65;;;4.45;;
16403;SDS011;8311;50.158;8.642;2022-08-18T08:09:24;6.15;;;4.43;;
16403;SDS011;8311;50.158;8.642;2022-08-18T08:12:25;5.15;;;4.25;;
16403;SDS011;8311;50.158;8.642;2022-08-18T08:15:30;7.45;;;4.47;;
16403;SDS011;8311;50.158;8.642;2022-08-18T08:18:36;6.07;;;4.82;;
16403;SDS011;8311;50.158;8.642;2022-08-18T08:21:39;8.25;;;4.85;;
16403;SDS011;8311;50.158;8.642;2022-08-18T08:24:45;6.63;;;4.97;;
16403;SDS011;8311;50.158;8.642;2022-08-18T08:27:48;6.68;;;4.70;;
16403;SDS011;8311;50.158;8.642;2022-08-18T08:30:58;6.00;;;4.35;;
16403;SDS011;8311;50.158;8.642;2022-08-18T08:34:21;6.70;;;4.65;;
16403;SDS011;8311;50.158;8.642;2022-08-18T08:37:22;5.65;;;4.60;;
16403;SDS011;8311;50.158;8.642;2022-08-18T08:40:21;8.00;;;5.47;;
16403;SDS011;8311;50.158;8.642;2022-08-18T08:43:18;10.50;;;5.32;;
16403;SDS011;8311;50.158;8.642;2022-08-18T08:46:18;7.53;;;5.10;;
16403;SDS011;8311;50.158;8.642;2022-08-18T08:49:18;9.15;;;5.03;;
16403;SDS011;8311;50.158;8.642;2022-08-18T08:52:19;8.80;;;5.05;;
16403;SDS011;8311;50.158;8.642;2022-08-18T08:55:17;6.70;;;4.88;;
16403;SDS011;8311;50.158;8.642;2022-08-18T08:58:20;9.60;;;4.93;;
16403;SDS011;8311;50.158;8.642;2022-08-18T09:01:21;7.63;;;4.75;;
16403;SDS011;8311;50.158;8.642;2022-08-18T09:04:27;9.13;;;5.40;;
16403;SDS011;8311;50.158;8.642;2022-08-18T09:07:33;5.63;;;4.13;;
16403;SDS011;8311;50.158;8.642;2022-08-18T09:10:41;6.28;;;4.47;;
16403;SDS011;8311;50.158;8.642;2022-08-18T09:13:48;5.38;;;4.13;;
16403;SDS011;8311;50.158;8.642;2022-08-18T09:17:09;6.30;;;5.03;;
16403;SDS011;8311;50.158;8.642;2022-08-18T09:20:32;7.68;;;4.57;;
16403;SDS011;8311;50.158;8.642;2022-08-18T09:23:41;6.88;;;4.35;;
16403;SDS011;8311;50.158;8.642;2022-08-18T09:26:40;6.72;;;4.70;;
16403;SDS011;8311;50.158;8.642;2022-08-18T09:29:45;6.45;;;4.93;;
16403;SDS011;8311;50.158;8.642;2022-08-18T09:35:54;6.38;;;4.85;;
16403;SDS011;8311;50.158;8.642;2022-08-18T09:39:07;7.18;;;4.57;;
16403;SDS011;8311;50.158;8.642;2022-08-18T09:42:31;6.43;;;4.68;;
16403;SDS011;8311;50.158;8.642;2022-08-18T09:45:53;8.68;;;4.63;;
16403;SDS011;8311;50.158;8.642;2022-08-18T09:48:49;7.45;;;4.90;;
16403;SDS011;8311;50.158;8.642;2022-08-18T09:58:56;7.15;;;4.88;;
16403;SDS011;8311;50.158;8.642;2022-08-18T10:01:53;9.27;;;5.15;;
16403;SDS011;8311;50.158;8.642;2022-08-18T10:04:47;6.50;;;5.00;;
16403;SDS011;8311;50.158;8.642;2022-08-18T10:07:41;6.70;;;4.45;;
16403;SDS011;8311;50.158;8.642;2022-08-18T10:10:39;6.32;;;5.57;;
16403;SDS011;8311;50.158;8.642;2022-08-18T10:13:58;8.27;;;5.13;;
16403;SDS011;8311;50.158;8.642;2022-08-18T10:17:02;8.80;;;5.82;;
16403;SDS011;8311;50.158;8.642;2022-08-18T10:20:18;8.10;;;5.68;;
16403;SDS011;8311;50.158;8.642;2022-08-18T10:30:05;5.80;;;4.40;;
16403;SDS011;8311;50.158;8.642;2022-08-18T10:36:49;7.40;;;5.38;;
16403;SDS011;8311;50.158;8.642;2022-08-18T10:39:50;7.50;;;5.40;;
16403;SDS011;8311;50.158;8.642;2022-08-18T10:42:47;8.75;;;5.78;;
16403;SDS011;8311;50.158;8.642;2022-08-18T10:45:46;7.40;;;5.07;;
16403;SDS011;8311;50.158;8.642;2022-08-18T10:49:14;7.30;;;5.10;;
16403;SDS011;8311;50.158;8.642;2022-08-18T10:52:19;7.30;;;5.78;;
16403;SDS011;8311;50.158;8.642;2022-08-18T10:55:32;6.38;;;4.85;;
16403;SDS011;8311;50.158;8.642;2022-08-18T10:58:58;8.05;;;5.63;;
16403;SDS011;8311;50.158;8.642;2022-08-18T11:02:12;7.45;;;5.53;;
16403;SDS011;8311;50.158;8.642;2022-08-18T11:05:15;6.30;;;4.97;;
16403;SDS011;8311;50.158;8.642;2022-08-18T11:08:13;6.72;;;5.13;;
16403;SDS011;8311;50.158;8.642;2022-08-18T11:11:12;7.50;;;5.75;;
16403;SDS011;8311;50.158;8.642;2022-08-18T11:14:39;6.93;;;4.50;;
16403;SDS011;8311;50.158;8.642;2022-08-18T11:18:18;6.65;;;4.70;;
16403;SDS011;8311;50.158;8.642;2022-08-18T11:21:22;7.43;;;5.97;;
16403;SDS011;8311;50.158;8.642;2022-08-18T11:24:18;6.95;;;5.50;;
16403;SDS011;8311;50.158;8.642;2022-08-18T11:27:16;7.15;;;5.80;;
16403;SDS011;8311;50.158;8.642;2022-08-18T11:30:13;7.43;;;6.28;;
16403;SDS011;8311;50.158;8.642;2022-08-18T11:33:09;6.75;;;5.07;;
16403;SDS011;8311;50.158;8.642;2022-08-18T11:36:15;7.43;;;5.57;;
16403;SDS011;8311;50.158;8.642;2022-08-18T11:39:09;6.82;;;5.35;;
16403;SDS011;8311;50.158;8.642;2022-08-18T11:42:05;6.93;;;5.80;;
16403;SDS011;8311;50.158;8.642;2022-08-18T11:45:14;8.68;;;6.57;;
16403;SDS011;8311;50.158;8.642;2022-08-18T11:48:16;6.85;;;4.75;;
16403;SDS011;8311;50.158;8.642;2022-08-18T11:51:22;7.15;;;6.18;;
16403;SDS011;8311;50.158;8.642;2022-08-18T11:54:19;6.95;;;4.97;;
16403;SDS011;8311;50.158;8.642;2022-08-18T11:57:28;7.13;;;5.28;;
16403;SDS011;8311;50.158;8.642;2022-08-18T12:00:41;7.72;;;6.35;;
16403;SDS011;8311;50.158;8.642;2022-08-18T12:03:47;8.30;;;6.68;;
16403;SDS011;8311;50.158;8.642;2022-08-18T12:06:53;8.55;;;7.20;;
16403;SDS011;8311;50.158;8.642;2022-08-18T12:10:08;11.55;;;7.47;;
16403;SDS011;8311;50.158;8.642;2022-08-18T12:13:19;12.27;;;8.75;;
16403;SDS011;8311;50.158;8.642;2022-08-18T12:16:15;12.45;;;8.13;;
16403;SDS011;8311;50.158;8.642;2022-08-18T12:19:22;9.88;;;7.28;;
16403;SDS011;8311;50.158;8.642;2022-08-18T12:22:21;9.73;;;8.23;;
16403;SDS011;8311;50.158;8.642;2022-08-18T12:25:16;11.13;;;7.80;;
16403;SDS011;8311;50.158;8.642;2022-08-18T12:28:15;8.52;;;7.63;;
16403;SDS011;8311;50.158;8.642;2022-08-18T12:31:09;10.10;;;8.35;;
16403;SDS011;8311;50.158;8.642;2022-08-18T12:34:07;9.55;;;8.55;;
16403;SDS011;8311;50.158;8.642;2022-08-18T12:37:06;8.50;;;6.95;;
16403;SDS011;8311;50.158;8.642;2022-08-18T12:40:22;9.32;;;7.47;;
16403;SDS011;8311;50.158;8.642;2022-08-18T12:43:16;10.20;;;7.75;;
16403;SDS011;8311;50.158;8.642;2022-08-18T12:46:10;8.02;;;7.20;;
16403;SDS011;8311;50.158;8.642;2022-08-18T12:49:04;10.00;;;8.30;;
16403;SDS011;8311;50.158;8.642;2022-08-18T12:52:02;10.15;;;9.07;;
16403;SDS011;8311;50.158;8.642;2022-08-18T12:54:55;9.15;;;8.02;;
16403;SDS011;8311;50.158;8.642;2022-08-18T12:57:50;8.05;;;6.90;;
16403;SDS011;8311;50.158;8.642;2022-08-18T13:00:44;10.52;;;7.78;;
16403;SDS011;8311;50.158;8.642;2022-08-18T13:03:41;9.70;;;7.93;;
16403;SDS011;8311;50.158;8.642;2022-08-18T13:06:55;8.40;;;7.30;;
16403;SDS011;8311;50.158;8.642;2022-08-18T13:09:53;9.98;;;7.22;;
16403;SDS011;8311;50.158;8.642;2022-08-18T13:12:45;9.75;;;8.48;;
16403;SDS011;8311;50.158;8.642;2022-08-18T13:15:41;9.55;;;8.55;;
16403;SDS011;8311;50.158;8.642;2022-08-18T13:18:49;8.70;;;7.35;;
16403;SDS011;8311;50.158;8.642;2022-08-18T13:21:43;10.32;;;9.27;;
16403;SDS011;8311;50.158;8.642;2022-08-18T13:24:35;9.52;;;8.13;;
16403;SDS011;8311;50.158;8.642;2022-08-18T13:27:28;10.10;;;8.73;;
16403;SDS011;8311;50.158;8.642;2022-08-18T13:30:26;11.95;;;8.07;;
16403;SDS011;8311;50.158;8.642;2022-08-18T13:33:24;8.30;;;6.88;;
16403;SDS011;8311;50.158;8.642;2022-08-18T13:36:38;8.77;;;7.70;;
16403;SDS011;8311;50.158;8.642;2022-08-18T13:39:38;9.70;;;7.90;;
16403;SDS011;8311;50.158;8.642;2022-08-18T13:42:41;9.43;;;7.50;;
16403;SDS011;8311;50.158;8.642;2022-08-18T13:45:42;8.43;;;7.47;;
16403;SDS011;8311;50.158;8.642;2022-08-18T13:48:44;9.13;;;7.63;;
16403;SDS011;8311;50.158;8.642;2022-08-18T13:51:38;10.40;;;8.63;;
16403;SDS011;8311;50.158;8.642;2022-08-18T13:54:33;8.70;;;7.60;;
16403;SDS011;8311;50.158;8.642;2022-08-18T13:57:28;9.25;;;8.25;;
16403;SDS011;8311;50.158;8.642;2022-08-18T14:00:22;8.30;;;7.45;;
16403;SDS011;8311;50.158;8.642;2022-08-18T14:03:22;8.20;;;7.32;;
16403;SDS011;8311;50.158;8.642;2022-08-18T14:06:36;8.50;;;7.35;;
16403;SDS011;8311;50.158;8.642;2022-08-18T14:09:38;9.82;;;8.63;;
16403;SDS011;8311;50.158;8.642;2022-08-18T14:12:30;8.70;;;7.80;;
16403;SDS011;8311;50.158;8.642;2022-08-18T14:15:25;8.95;;;8.05;;
16403;SDS011;8311;50.158;8.642;2022-08-18T14:18:21;8.98;;;7.20;;
16403;SDS011;8311;50.158;8.642;2022-08-18T14:21:19;8.13;;;7.18;;
16403;SDS011;8311;50.158;8.642;2022-08-18T14:24:33;9.25;;;7.55;;
16403;SDS011;8311;50.158;8.642;2022-08-18T14:27:47;10.43;;;8.50;;
16403;SDS011;8311;50.158;8.642;2022-08-18T14:30:47;8.77;;;7.88;;
16403;SDS011;8311;50.158;8.642;2022-08-18T14:33:45;8.65;;;7.80;;
16403;SDS011;8311;50.158;8.642;2022-08-18T14:36:44;7.75;;;6.72;;
16403;SDS011;8311;50.158;8.642;2022-08-18T14:39:39;9.15;;;8.07;;
16403;SDS011;8311;50.158;8.642;2022-08-18T14:42:38;8.40;;;7.55;;
16403;SDS011;8311;50.158;8.642;2022-08-18T14:45:46;8.98;;;8.15;;
16403;SDS011;8311;50.158;8.642;2022-08-18T14:48:41;9.68;;;8.68;;
16403;SDS011;8311;50.158;8.642;2022-08-18T14:51:37;10.55;;;9.07;;
16403;SDS011;8311;50.158;8.642;2022-08-18T14:54:32;10.45;;;8.90;;
16403;SDS011;8311;50.158;8.642;2022-08-18T14:57:28;10.45;;;9.35;;
16403;SDS011;8311;50.158;8.642;2022-08-18T15:00:22;12.43;;;9.32;;
16403;SDS011;8311;50.158;8.642;2022-08-18T15:03:18;10.93;;;8.50;;
16403;SDS011;8311;50.158;8.642;2022-08-18T15:06:10;12.15;;;9.38;;
16403;SDS011;8311;50.158;8.642;2022-08-18T15:09:13;11.13;;;10.02;;
16403;SDS011;8311;50.158;8.642;2022-08-18T15:12:06;10.90;;;8.73;;
16403;SDS011;8311;50.158;8.642;2022-08-18T15:15:07;10.02;;;8.35;;
16403;SDS011;8311;50.158;8.642;2022-08-18T15:18:08;10.27;;;8.32;;
16403;SDS011;8311;50.158;8.642;2022-08-18T15:21:04;9.48;;;8.57;;
16403;SDS011;8311;50.158;8.642;2022-08-18T15:24:29;9.82;;;8.82;;
16403;SDS011;8311;50.158;8.642;2022-08-18T15:27:40;11.43;;;9.48;;
16403;SDS011;8311;50.158;8.642;2022-08-18T15:30:34;11.60;;;10.40;;
16403;SDS011;8311;50.158;8.642;2022-08-18T15:33:28;11.32;;;10.15;;
16403;SDS011;8311;50.158;8.642;2022-08-18T15:36:27;10.38;;;9.05;;
16403;SDS011;8311;50.158;8.642;2022-08-18T15:39:22;13.50;;;10.10;;
16403;SDS011;8311;50.158;8.642;2022-08-18T15:42:15;10.40;;;9.30;;
16403;SDS011;8311;50.158;8.642;2022-08-18T15:45:09;10.25;;;8.98;;
16403;SDS011;8311;50.158;8.642;2022-08-18T15:48:06;10.75;;;8.82;;
16403;SDS011;8311;50.158;8.642;2022-08-18T15:51:03;11.40;;;8.80;;
16403;SDS011;8311;50.158;8.642;2022-08-18T15:54:02;11.25;;;9.50;;
16403;SDS011;8311;50.158;8.642;2022-08-18T15:56:57;12.20;;;9.18;;
16403;SDS011;8311;50.158;8.642;2022-08-18T15:59:50;10.38;;;8.82;;
16403;SDS011;8311;50.158;8.642;2022-08-18T16:02:47;9.70;;;8.70;;
16403;SDS011;8311;50.158;8.642;2022-08-18T16:05:46;11.25;;;9.10;;
16403;SDS011;8311;50.158;8.642;2022-08-18T16:08:43;10.48;;;8.77;;
16403;SDS011;8311;50.158;8.642;2022-08-18T16:11:36;11.75;;;9.00;;
16403;SDS011;8311;50.158;8.642;2022-08-18T16:14:30;10.18;;;8.77;;
16403;SDS011;8311;50.158;8.642;2022-08-18T16:17:24;11.35;;;8.45;;
16403;SDS011;8311;50.158;8.642;2022-08-18T16:20:23;11.10;;;9.18;;
16403;SDS011;8311;50.158;8.642;2022-08-18T16:23:30;10.65;;;8.60;;
16403;SDS011;8311;50.158;8.642;2022-08-18T16:26:26;9.70;;;8.35;;
16403;SDS011;8311;50.158;8.642;2022-08-18T16:29:20;9.48;;;8.20;;
16403;SDS011;8311;50.158;8.642;2022-08-18T16:32:14;10.20;;;7.57;;
16403;SDS011;8311;50.158;8.642;2022-08-18T16:35:08;10.57;;;8.50;;
16403;SDS011;8311;50.158;8.642;2022-08-18T16:38:04;8.82;;;7.75;;
16403;SDS011;8311;50.158;8.642;2022-08-18T16:41:03;8.75;;;7.15;;
16403;SDS011;8311;50.158;8.642;2022-08-18T16:44:04;8.98;;;7.70;;
16403;SDS011;8311;50.158;8.642;2022-08-18T16:46:57;7.90;;;7.10;;
16403;SDS011;8311;50.158;8.642;2022-08-18T16:49:52;8.48;;;7.57;;
16403;SDS011;8311;50.158;8.642;2022-08-18T16:52:48;7.65;;;6.75;;
16403;SDS011;8311;50.158;8.642;2022-08-18T16:55:43;7.57;;;6.38;;
16403;SDS011;8311;50.158;8.642;2022-08-18T16:58:38;7.60;;;6.22;;
16403;SDS011;8311;50.158;8.642;2022-08-18T17:01:49;7.70;;;6.57;;
16403;SDS011;8311;50.158;8.642;2022-08-18T17:04:59;8.45;;;7.22;;
16403;SDS011;8311;50.158;8.642;2022-08-18T17:07:53;8.35;;;6.97;;
16403;SDS011;8311;50.158;8.642;2022-08-18T17:10:47;7.95;;;6.82;;
16403;SDS011;8311;50.158;8.642;2022-08-18T17:13:43;7.10;;;6.20;;
16403;SDS011;8311;50.158;8.642;2022-08-18T17:16:37;8.65;;;7.07;;
16403;SDS011;8311;50.158;8.642;2022-08-18T17:19:32;8.35;;;6.97;;
16403;SDS011;8311;50.158;8.642;2022-08-18T17:22:27;10.00;;;7.68;;
16403;SDS011;8311;50.158;8.642;2022-08-18T17:25:21;8.27;;;6.82;;
16403;SDS011;8311;50.158;8.642;2022-08-18T17:28:20;8.90;;;7.05;;
16403;SDS011;8311;50.158;8.642;2022-08-18T17:31:18;8.20;;;7.00;;
16403;SDS011;8311;50.158;8.642;2022-08-18T17:34:15;8.80;;;7.10;;
16403;SDS011;8311;50.158;8.642;2022-08-18T17:37:09;10.25;;;8.13;;
16403;SDS011;8311;50.158;8.642;2022-08-18T17:40:09;8.75;;;7.65;;
16403;SDS011;8311;50.158;8.642;2022-08-18T17:43:20;8.45;;;7.50;;
16403;SDS011;8311;50.158;8.642;2022-08-18T17:46:16;9.20;;;7.60;;
16403;SDS011;8311;50.158;8.642;2022-08-18T17:49:21;8.43;;;7.53;;
16403;SDS011;8311;50.158;8.642;2022-08-18T17:53:03;9.20;;;7.40;;
16403;SDS011;8311;50.158;8.642;2022-08-18T17:55:58;9.45;;;8.40;;
16403;SDS011;8311;50.158;8.642;2022-08-18T17:58:57;9.55;;;8.38;;
16403;SDS011;8311;50.158;8.642;2022-08-18T18:02:06;8.63;;;7.57;;
16403;SDS011;8311;50.158;8.642;2022-08-18T18:05:21;9.00;;;7.35;;
16403;SDS011;8311;50.158;8.642;2022-08-18T18:08:18;8.52;;;7.50;;
16403;SDS011;8311;50.158;8.642;2022-08-18T18:11:11;9.35;;;8.32;;
16403;SDS011;8311;50.158;8.642;2022-08-18T18:14:23;9.00;;;8.05;;
16403;SDS011;8311;50.158;8.642;2022-08-18T18:17:20;9.57;;;8.13;;
16403;SDS011;8311;50.158;8.642;2022-08-18T18:20:21;9.25;;;8.05;;
16403;SDS011;8311;50.158;8.642;2022-08-18T18:23:37;8.95;;;8.05;;
16403;SDS011;8311;50.158;8.642;2022-08-18T18:26:33;9.13;;;8.15;;
16403;SDS011;8311;50.158;8.642;2022-08-18T18:29:28;9.45;;;8.43;;
16403;SDS011;8311;50.158;8.642;2022-08-18T18:32:30;9.73;;;8.73;;
16403;SDS011;8311;50.158;8.642;2022-08-18T18:35:31;8.68;;;7.78;;
16403;SDS011;8311;50.158;8.642;2022-08-18T18:38:45;10.30;;;8.50;;
16403;SDS011;8311;50.158;8.642;2022-08-18T18:41:40;9.38;;;8.38;;